Time;durP1;ratioP1;P1;durP2;ratioP2;P2;SDS_P1;SDS_P2;PMS_P1;PMS_P2;Temp;Humidity;BMP_temperature;BMP_pressure;BME280_temperature;BME280_humidity;BME280_pressure;Samples;Min_cycle;Max_cycle;Signal;HPM_P1;HPM_P2
2023/01/31 00:01:32;;;;;;;12.17;2.47;;;;;;;3.24;85.53;100506.28;4937057;28;20420;-83
2023/01/31 00:04:04;;;;;;;11.77;2.43;;;;;;;3.06;87.86;100503.53;4959146;28;20751;-83
2023/01/31 00:06:33;;;;;;;10.57;3.27;;;;;;;3.17;86.66;100495.78;4937046;28;20042;-82
2023/01/31 00:09:01;;;;;;;10.67;4.17;;;;;;;3.18;87.15;100495.78;4960977;28;20093;-83
2023/01/31 00:11:29;;;;;;;7.57;2.43;;;;;;;3.17;87.70;100503.63;4960931;28;20081;-83
2023/01/31 00:13:57;;;;;;;8.63;2.70;;;;;;;3.03;84.84;100501.81;4943791;28;20637;-82
2023/01/31 00:16:25;;;;;;;11.93;3.23;;;;;;;2.98;87.25;100500.88;4960388;28;20058;-82
2023/01/31 00:18:53;;;;;;;10.93;2.73;;;;;;;3.10;87.03;100500.09;4960762;28;20167;-82
2023/01/31 00:21:26;;;;;;;13.17;3.93;;;;;;;3.05;84.88;100494.84;4957980;28;20039;-82
2023/01/31 00:23:57;;;;;;;7.03;2.30;;;;;;;3.09;88.12;100506.16;4958356;28;20391;-81
2023/01/31 00:26:32;;;;;;;9.23;3.63;;;;;;;2.93;87.06;100506.91;4953761;28;20069;-82
2023/01/31 00:29:00;;;;;;;8.57;2.50;;;;;;;2.88;87.66;100504.28;4949955;28;20046;-83
2023/01/31 00:31:29;;;;;;;9.47;2.77;;;;;;;2.99;87.75;100504.34;4941566;28;20054;-82
2023/01/31 00:33:57;;;;;;;14.10;2.93;;;;;;;2.93;88.66;100514.75;4925685;28;20424;-82
2023/01/31 00:36:32;;;;;;;9.93;3.07;;;;;;;3.00;87.49;100522.63;4956593;28;20054;-82
2023/01/31 00:39:01;;;;;;;4.90;2.20;;;;;;;3.03;88.45;100527.03;4952300;28;20049;-82
2023/01/31 00:41:29;;;;;;;10.07;3.20;;;;;;;2.99;87.12;100530.44;4940476;28;20496;-82
2023/01/31 00:43:56;;;;;;;8.77;2.53;;;;;;;3.00;88.77;100527.84;4928322;28;20451;-81
2023/01/31 00:46:26;;;;;;;10.03;3.83;;;;;;;2.95;87.00;100533.91;4962335;28;20038;-84
2023/01/31 00:48:54;;;;;;;9.43;2.90;;;;;;;2.86;88.31;100537.31;4941832;28;20068;-81
2023/01/31 00:51:30;;;;;;;9.37;3.70;;;;;;;2.87;89.69;100535.59;4955333;28;20046;-84
2023/01/31 00:53:58;;;;;;;10.93;3.17;;;;;;;2.94;88.27;100540.84;4943416;28;20060;-83
2023/01/31 00:56:25;;;;;;;9.47;3.13;;;;;;;2.90;88.14;100546.91;4932828;28;20065;-81
2023/01/31 00:58:52;;;;;;;15.03;3.63;;;;;;;2.91;91.43;100555.59;4933112;28;20396;-83
2023/01/31 01:01:25;;;;;;;8.27;2.80;;;;;;;2.93;90.90;100557.34;4943623;28;20046;-82
2023/01/31 01:03:52;;;;;;;9.57;2.93;;;;;;;2.87;88.85;100549.50;4960973;28;20089;-82
2023/01/31 01:06:19;;;;;;;7.47;2.73;;;;;;;2.90;88.98;100553.88;4942045;28;20496;-82
2023/01/31 01:08:46;;;;;;;15.27;5.00;;;;;;;2.87;91.39;100559.94;4942933;28;20097;-82
2023/01/31 01:11:16;;;;;;;9.90;2.70;;;;;;;2.85;89.69;100569.47;4958626;28;20046;-81
2023/01/31 01:13:43;;;;;;;10.13;3.17;;;;;;;2.88;91.11;100561.69;4940479;28;20045;-81
2023/01/31 01:16:12;;;;;;;11.07;3.57;;;;;;;2.85;90.57;100572.06;4941193;28;20035;-81
2023/01/31 01:18:40;;;;;;;9.10;3.10;;;;;;;2.87;89.48;100577.34;4957006;28;20038;-85
2023/01/31 01:21:09;;;;;;;7.17;2.40;;;;;;;2.90;89.83;100572.13;4943205;28;20043;-84
2023/01/31 01:23:36;;;;;;;13.90;2.90;;;;;;;2.81;90.62;100576.41;4974419;28;20039;-84
2023/01/31 01:26:04;;;;;;;8.83;2.70;;;;;;;2.86;91.32;100581.69;4937035;28;20078;-83
2023/01/31 01:28:34;;;;;;;5.93;2.43;;;;;;;2.77;91.89;100587.66;4955651;28;20130;-84
2023/01/31 01:31:08;;;;;;;10.33;2.60;;;;;;;2.63;93.30;100598.81;4924511;28;20487;-84
2023/01/31 01:33:35;;;;;;;12.02;2.35;;;;;;;2.66;93.83;100596.25;4936098;28;20042;-84
2023/01/31 01:36:04;;;;;;;10.53;3.57;;;;;;;2.68;93.54;100582.34;4942851;28;20042;-84
2023/01/31 01:38:35;;;;;;;9.70;2.60;;;;;;;2.67;93.11;100584.94;5000577;23;21324;-80
2023/01/31 01:41:04;;;;;;;10.20;3.00;;;;;;;2.68;93.71;100589.28;4974417;28;20046;-81
2023/01/31 01:44:27;;;;;;;12.10;3.30;;;;;;;2.78;91.92;100592.03;4974515;28;20042;-80
2023/01/31 01:46:54;;;;;;;8.00;1.83;;;;;;;2.62;92.67;100592.75;4901101;29;20052;-80
2023/01/31 01:49:31;;;;;;;11.83;2.70;;;;;;;2.63;92.16;100601.44;4882327;29;20090;-80
2023/01/31 01:52:02;;;;;;;8.10;2.60;;;;;;;2.62;94.65;100607.50;4933072;28;20535;-80
2023/01/31 01:54:41;;;;;;;8.03;2.93;;;;;;;2.67;93.26;100605.81;4943840;28;20395;-81
2023/01/31 01:57:07;;;;;;;14.27;2.70;;;;;;;2.58;93.56;100621.34;4941494;28;20042;-80
2023/01/31 01:59:39;;;;;;;9.40;2.60;;;;;;;2.63;93.01;100619.69;4967917;28;20045;-79
2023/01/31 02:02:06;;;;;;;8.67;3.07;;;;;;;2.59;93.80;100630.94;4952477;28;20069;-80
2023/01/31 02:04:37;;;;;;;9.93;3.53;;;;;;;2.56;95.13;100629.16;4943128;28;20060;-80
2023/01/31 02:07:04;;;;;;;11.67;3.10;;;;;;;2.57;93.68;100636.13;4973701;28;20046;-80
2023/01/31 02:09:32;;;;;;;11.87;2.83;;;;;;;2.60;94.85;100638.75;4965785;28;20051;-80
2023/01/31 02:11:58;;;;;;;10.83;2.50;;;;;;;2.56;94.26;100638.72;4958702;28;20119;-80
2023/01/31 02:14:26;;;;;;;11.47;2.60;;;;;;;2.67;95.08;100645.81;4974419;28;20043;-80
2023/01/31 02:16:52;;;;;;;9.23;2.77;;;;;;;2.75;94.60;100666.75;4954596;28;20042;-81
2023/01/31 02:19:27;;;;;;;8.03;2.37;;;;;;;2.68;95.38;100668.41;4961175;28;20495;-80
2023/01/31 02:22:05;;;;;;;8.93;2.63;;;;;;;2.71;94.68;100671.09;4995334;28;20049;-80
2023/01/31 02:24:50;;;;;;;10.43;2.60;;;;;;;2.66;95.76;100672.75;4958911;28;20050;-80
2023/01/31 02:27:33;;;;;;;12.73;2.50;;;;;;;2.75;95.24;100679.81;4992286;28;20116;-79
2023/01/31 02:30:23;;;;;;;7.70;2.33;;;;;;;2.71;94.20;100689.34;4961308;28;20046;-79
2023/01/31 02:32:57;;;;;;;11.63;3.33;;;;;;;2.69;94.95;100682.34;4974672;28;20090;-81
2023/01/31 02:35:31;;;;;;;10.90;3.10;;;;;;;2.71;94.66;100697.16;4973874;28;20050;-81
2023/01/31 02:38:11;;;;;;;9.15;2.30;;;;;;;2.70;94.70;100699.78;4940001;28;20043;-80
2023/01/31 02:40:45;;;;;;;8.83;2.43;;;;;;;2.72;94.06;100691.09;4939926;28;20042;-79
2023/01/31 02:43:18;;;;;;;12.63;3.43;;;;;;;2.78;92.92;100693.78;4941633;28;20053;-81
2023/01/31 02:46:00;;;;;;;6.57;2.20;;;;;;;2.71;93.72;100704.13;4990181;28;20045;-79
2023/01/31 02:48:47;;;;;;;11.93;3.73;;;;;;;2.66;95.71;100695.34;4955161;28;20407;-80
2023/01/31 02:52:14;;;;;;;8.07;2.73;;;;;;;2.70;94.51;100703.25;4974300;28;20100;-80
2023/01/31 02:56:13;;;;;;;11.03;2.67;;;;;;;2.70;95.90;100692.81;4957425;28;20054;-80
2023/01/31 02:57:20;;;;;;;7.53;2.43;;;;;;;2.62;96.53;100701.41;4972138;28;20046;-81
2023/01/31 02:59:47;;;;;;;12.00;2.73;;;;;;;2.68;96.11;100709.28;4974645;28;20046;-81
2023/01/31 03:02:14;;;;;;;7.10;2.77;;;;;;;2.72;95.00;100711.09;4955842;28;20057;-80
2023/01/31 03:04:42;;;;;;;11.07;3.00;;;;;;;2.70;95.94;100716.28;4969694;28;20043;-79
2023/01/31 03:07:15;;;;;;;8.57;3.07;;;;;;;2.71;95.10;100710.22;4969872;28;20085;-80
2023/01/31 03:10:06;;;;;;;6.07;2.10;;;;;;;2.77;94.99;100712.88;4976661;28;20038;-80
2023/01/31 03:12:47;;;;;;;9.87;2.40;;;;;;;2.77;93.98;100712.88;4985563;28;20047;-80
2023/01/31 03:15:14;;;;;;;9.77;2.73;;;;;;;2.80;94.87;100712.06;4950925;28;20460;-82
2023/01/31 03:18:14;;;;;;;11.60;3.03;;;;;;;2.74;94.41;100718.06;4949576;28;20053;-80
2023/01/31 03:21:05;;;;;;;6.10;2.27;;;;;;;2.69;95.20;100711.94;4961360;28;20070;-81
2023/01/31 03:23:34;;;;;;;9.23;2.47;;;;;;;2.78;96.11;100717.25;4955564;28;20108;-81
2023/01/31 03:26:03;;;;;;;8.63;2.43;;;;;;;2.82;96.42;100721.66;4965513;28;20529;-80
2023/01/31 03:28:34;;;;;;;8.40;2.87;;;;;;;2.83;94.58;100728.59;4963595;28;20042;-81
2023/01/31 03:31:07;;;;;;;5.70;1.90;;;;;;;2.85;93.79;100731.22;4971648;28;20042;-80
2023/01/31 03:33:38;;;;;;;8.70;2.30;;;;;;;2.91;93.20;100731.31;4947612;28;20046;-80
2023/01/31 03:36:23;;;;;;;6.80;3.03;;;;;;;2.86;95.05;100738.22;4974378;28;20042;-80
2023/01/31 03:39:09;;;;;;;8.83;2.43;;;;;;;2.72;96.36;100738.06;4986362;28;20043;-81
2023/01/31 03:42:01;;;;;;;13.47;3.37;;;;;;;2.79;95.34;100752.94;4952399;28;20030;-79
2023/01/31 03:44:35;;;;;;;8.33;2.43;;;;;;;2.75;96.40;100748.50;4974236;28;20040;-80
2023/01/31 03:47:04;;;;;;;;;;;;;;;2.62;97.14;100753.56;4968125;28;20573;-80
2023/01/31 03:49:31;;;;;;;9.70;2.50;;;;;;;2.69;96.15;100745.84;4949550;28;19921;-80
2023/01/31 03:52:05;;;;;;;9.63;2.33;;;;;;;2.67;98.22;100744.94;4992624;28;20042;-79
2023/01/31 03:54:37;;;;;;;6.63;1.88;;;;;;;2.64;99.11;100747.50;4958613;28;20499;-79
2023/01/31 03:57:20;;;;;;;6.27;1.70;;;;;;;2.64;99.73;100749.25;4956656;28;20046;-80
2023/01/31 03:59:52;;;;;;;12.47;2.90;;;;;;;2.63;100.00;100753.59;4940456;28;20050;-80
2023/01/31 04:02:23;;;;;;;7.53;2.10;;;;;;;2.69;99.74;100761.50;4960398;28;20061;-79
2023/01/31 04:04:55;;;;;;;13.27;2.73;;;;;;;2.56;99.96;100754.34;4961107;28;20443;-81
2023/01/31 04:07:22;;;;;;;6.23;2.80;;;;;;;2.50;100.00;100762.97;4974960;28;21902;-80
2023/01/31 04:09:49;;;;;;;13.07;3.47;;;;;;;2.52;100.00;100761.28;4957219;28;20200;-81
2023/01/31 04:12:16;;;;;;;11.27;2.17;;;;;;;2.48;100.00;100753.38;4968165;28;20077;-80
2023/01/31 04:14:42;;;;;;;7.07;2.27;;;;;;;2.36;100.00;100751.47;4957499;28;20046;-79
2023/01/31 04:17:09;;;;;;;8.90;2.53;;;;;;;2.25;100.00;100753.91;4975896;28;20534;-80
2023/01/31 04:19:36;;;;;;;8.53;3.70;;;;;;;2.33;100.00;100746.22;4976019;28;20046;-80
2023/01/31 04:22:02;;;;;;;8.10;2.37;;;;;;;2.22;100.00;100755.59;4943825;28;20046;-80
2023/01/31 04:24:29;;;;;;;7.07;2.47;;;;;;;2.28;100.00;100753.09;4956570;28;20503;-79
2023/01/31 04:26:56;;;;;;;6.80;2.13;;;;;;;2.33;100.00;100766.19;4973387;28;20039;-79
2023/01/31 04:29:22;;;;;;;7.87;2.20;;;;;;;2.18;100.00;100759.88;4991528;28;20141;-79
2023/01/31 04:31:49;;;;;;;12.53;2.83;;;;;;;2.08;100.00;100765.81;4989693;28;20038;-79
2023/01/31 04:34:19;;;;;;;7.40;2.30;;;;;;;2.01;100.00;100761.34;4941394;28;20039;-80
2023/01/31 04:36:45;;;;;;;9.03;2.77;;;;;;;1.91;100.00;100767.28;4973469;28;20090;-79
2023/01/31 04:39:13;;;;;;;10.83;2.57;;;;;;;1.92;100.00;100774.25;4973382;28;20042;-79
2023/01/31 04:41:39;;;;;;;7.53;2.40;;;;;;;1.72;100.00;100778.25;4960569;28;20476;-78
2023/01/31 04:44:06;;;;;;;6.63;2.00;;;;;;;1.56;100.00;100785.78;4960557;28;20073;-79
2023/01/31 04:46:33;;;;;;;6.60;2.10;;;;;;;1.53;100.00;100780.53;4944347;28;20050;-79
2023/01/31 04:49:00;;;;;;;10.27;2.40;;;;;;;1.54;100.00;100787.50;4975594;28;20042;-80
2023/01/31 04:51:30;;;;;;;10.13;3.57;;;;;;;1.63;100.00;100792.88;4960495;28;20038;-79
2023/01/31 04:53:57;;;;;;;9.93;2.40;;;;;;;1.65;100.00;100791.16;4960340;28;20082;-80
2023/01/31 04:56:23;;;;;;;5.73;2.27;;;;;;;1.66;100.00;100786.81;4952115;28;20046;-79
2023/01/31 04:58:50;;;;;;;8.50;3.00;;;;;;;1.55;100.00;100790.97;4959634;28;20046;-80
2023/01/31 05:01:17;;;;;;;12.00;2.60;;;;;;;1.61;100.00;100785.88;4972629;28;20057;-80
2023/01/31 05:03:44;;;;;;;7.63;2.50;;;;;;;1.51;100.00;100782.22;4972357;28;20388;-78
2023/01/31 05:06:10;;;;;;;13.93;3.43;;;;;;;1.63;100.00;100792.88;4968462;28;20554;-80
2023/01/31 05:08:37;;;;;;;10.03;2.00;;;;;;;1.38;100.00;100786.34;4973128;28;20145;-78
2023/01/31 05:11:05;;;;;;;7.73;1.97;;;;;;;1.34;100.00;100784.50;4965711;28;20519;-79
2023/01/31 05:13:37;;;;;;;8.40;2.27;;;;;;;1.36;100.00;100789.75;4967021;28;20066;-79
2023/01/31 05:16:06;;;;;;;6.83;1.90;;;;;;;1.26;100.00;100790.41;4979889;28;20454;-80
2023/01/31 05:18:34;;;;;;;9.53;2.43;;;;;;;1.41;100.00;100780.28;4972500;28;20049;-79
2023/01/31 05:21:02;;;;;;;13.37;3.97;;;;;;;1.36;100.00;100777.63;4967101;28;20053;-78
2023/01/31 05:23:29;;;;;;;9.53;2.53;;;;;;;1.27;100.00;100781.78;4959601;28;20053;-80
2023/01/31 05:25:56;;;;;;;7.60;2.67;;;;;;;1.23;100.00;100792.97;4958651;28;20037;-79
2023/01/31 05:28:24;;;;;;;7.47;2.10;;;;;;;1.38;100.00;100785.47;4940736;28;20042;-78
2023/01/31 05:30:52;;;;;;;7.57;2.27;;;;;;;1.33;100.00;100787.97;4947739;28;20054;-79
2023/01/31 05:33:19;;;;;;;13.30;2.60;;;;;;;1.27;100.00;100787.00;4959191;28;20109;-79
2023/01/31 05:35:47;;;;;;;11.13;2.17;;;;;;;1.27;100.00;100790.47;4975207;28;20041;-80
2023/01/31 05:38:14;;;;;;;6.60;3.00;;;;;;;1.27;100.00;100792.19;4974735;28;20044;-80
2023/01/31 05:40:40;;;;;;;9.23;2.87;;;;;;;1.33;100.00;100797.50;4970467;28;20038;-79
2023/01/31 05:43:07;;;;;;;10.67;2.93;;;;;;;1.25;100.00;100793.88;4983546;28;20070;-78
2023/01/31 05:45:34;;;;;;;10.53;3.10;;;;;;;1.22;100.00;100801.63;4961888;28;20042;-79
2023/01/31 05:48:00;;;;;;;9.43;2.73;;;;;;;1.15;100.00;100792.81;4966177;28;20472;-79
2023/01/31 05:50:28;;;;;;;7.57;3.17;;;;;;;1.25;100.00;100799.94;4940275;28;20039;-79
2023/01/31 05:52:58;;;;;;;8.13;3.73;;;;;;;1.23;100.00;100800.78;4943550;28;20084;-78
2023/01/31 05:55:26;;;;;;;8.70;2.07;;;;;;;1.34;100.00;100801.84;4930655;28;20043;-78
2023/01/31 05:57:53;;;;;;;6.23;2.70;;;;;;;1.29;100.00;100800.91;4972630;28;20648;-78
2023/01/31 06:00:20;;;;;;;6.77;2.77;;;;;;;1.22;100.00;100797.28;4956672;28;20495;-78
2023/01/31 06:02:47;;;;;;;10.27;3.30;;;;;;;1.23;100.00;100812.06;4972554;28;20652;-79
2023/01/31 06:05:15;;;;;;;9.97;3.03;;;;;;;1.30;100.00;100810.47;4971007;28;20045;-79
2023/01/31 06:07:41;;;;;;;9.90;2.90;;;;;;;1.32;100.00;100816.56;4942254;28;20454;-79
2023/01/31 06:10:10;;;;;;;11.70;3.03;;;;;;;1.25;100.00;100825.09;4959110;28;20046;-79
2023/01/31 06:12:36;;;;;;;7.57;2.50;;;;;;;1.32;100.00;100827.84;4959526;28;20050;-80
2023/01/31 06:15:04;;;;;;;12.13;2.73;;;;;;;1.40;100.00;100828.00;4959277;28;20073;-79
2023/01/31 06:17:30;;;;;;;7.20;2.47;;;;;;;1.47;100.00;100827.28;4974304;28;20034;-80
2023/01/31 06:19:57;;;;;;;11.93;2.80;;;;;;;1.48;100.00;100813.41;4959681;28;20042;-80
2023/01/31 06:22:24;;;;;;;12.00;2.40;;;;;;;1.52;100.00;100811.75;4975520;28;20061;-79
2023/01/31 06:24:51;;;;;;;9.00;2.33;;;;;;;1.54;100.00;100818.75;4942980;28;20559;-79
2023/01/31 06:27:18;;;;;;;9.10;2.33;;;;;;;1.54;100.00;100823.06;4986295;28;20097;-79
2023/01/31 06:29:44;;;;;;;13.70;3.33;;;;;;;1.63;100.00;100812.81;4957668;28;20046;-79
2023/01/31 06:32:11;;;;;;;9.70;2.90;;;;;;;1.66;100.00;100811.13;4975072;28;20080;-80
2023/01/31 06:34:38;;;;;;;7.20;1.97;;;;;;;1.68;100.00;100806.84;4958339;28;20034;-79
2023/01/31 06:37:07;;;;;;;9.80;3.20;;;;;;;1.64;100.00;100812.84;4957837;28;20562;-79
2023/01/31 06:39:34;;;;;;;18.23;3.20;;;;;;;1.71;100.00;100805.16;4975953;28;20042;-79
2023/01/31 06:42:00;;;;;;;8.67;2.70;;;;;;;1.76;100.00;100813.91;4941712;28;20050;-79
2023/01/31 06:44:27;;;;;;;8.30;2.60;;;;;;;1.74;100.00;100816.47;4950556;28;20038;-79
2023/01/31 06:46:54;;;;;;;11.83;2.83;;;;;;;1.80;100.00;100819.19;4972601;28;20038;-80
2023/01/31 06:49:21;;;;;;;10.23;3.80;;;;;;;1.85;100.00;100821.88;4962076;28;20034;-79
2023/01/31 06:51:48;;;;;;;5.43;2.77;;;;;;;1.87;100.00;100817.59;4959375;28;20042;-79
2023/01/31 06:54:14;;;;;;;13.03;3.17;;;;;;;1.87;100.00;100822.81;4970486;28;20092;-79
2023/01/31 06:56:41;;;;;;;8.47;3.30;;;;;;;1.88;100.00;100825.44;4978171;28;20034;-78
2023/01/31 06:59:08;;;;;;;10.73;3.43;;;;;;;1.83;100.00;100826.19;4961858;28;20038;-79
2023/01/31 07:01:34;;;;;;;8.40;2.90;;;;;;;2.00;100.00;100818.66;4977749;28;20042;-80
2023/01/31 07:04:01;;;;;;;10.23;3.10;;;;;;;2.06;100.00;100827.47;4977908;28;20057;-80
2023/01/31 07:06:28;;;;;;;8.83;2.90;;;;;;;2.02;100.00;100825.69;4967074;28;20051;-81
2023/01/31 07:08:54;;;;;;;8.73;3.10;;;;;;;2.05;100.00;100827.44;4976667;28;20038;-81
2023/01/31 07:11:21;;;;;;;7.70;2.50;;;;;;;2.15;100.00;100826.72;4967477;28;20045;-77
2023/01/31 07:13:49;;;;;;;10.30;2.90;;;;;;;2.20;100.00;100839.00;4971422;28;20385;-81
2023/01/31 07:16:16;;;;;;;12.07;2.97;;;;;;;2.30;100.00;100828.72;4942716;28;20047;-80
2023/01/31 07:18:42;;;;;;;10.77;2.73;;;;;;;2.25;100.00;100828.63;4958908;28;20089;-82
2023/01/31 07:21:09;;;;;;;10.63;3.40;;;;;;;2.20;100.00;100812.94;4976886;28;20043;-80
2023/01/31 07:23:36;;;;;;;12.73;3.17;;;;;;;2.28;100.00;100817.41;4943009;28;20144;-81
2023/01/31 07:26:04;;;;;;;8.33;2.90;;;;;;;2.34;100.00;100825.28;4943096;28;20050;-81
2023/01/31 07:28:30;;;;;;;8.93;2.20;;;;;;;2.40;100.00;100817.56;4969103;28;20038;-81
2023/01/31 07:31:10;;;;;;;10.67;3.00;;;;;;;2.36;100.00;100824.47;4994576;28;20046;-81
2023/01/31 07:33:38;;;;;;;5.33;1.97;;;;;;;2.37;100.00;100820.16;4976347;28;20071;-82
2023/01/31 07:36:06;;;;;;;11.67;3.77;;;;;;;2.44;100.00;100829.81;4985284;28;20038;-80
2023/01/31 07:38:33;;;;;;;8.07;2.77;;;;;;;2.45;100.00;100831.56;4966906;28;20480;-81
2023/01/31 07:41:02;;;;;;;10.47;3.00;;;;;;;2.37;100.00;100833.19;5045459;23;20100;-82
2023/01/31 07:43:30;;;;;;;8.80;2.43;;;;;;;2.40;100.00;100830.59;4991189;28;20042;-82
2023/01/31 07:45:57;;;;;;;16.83;4.30;;;;;;;2.57;100.00;100828.25;4979315;28;20145;-82
2023/01/31 07:48:24;;;;;;;11.87;2.90;;;;;;;2.61;100.00;100835.28;4963396;28;20557;-81
2023/01/31 07:50:52;;;;;;;9.27;2.97;;;;;;;2.59;100.00;100835.25;4963361;28;20057;-81
2023/01/31 07:53:19;;;;;;;8.03;2.50;;;;;;;2.62;100.00;100844.84;4975688;28;20042;-82
2023/01/31 07:55:46;;;;;;;6.83;2.40;;;;;;;2.52;100.00;100836.91;4975881;28;20092;-81
2023/01/31 07:58:14;;;;;;;7.57;2.43;;;;;;;2.59;100.00;100834.38;4976648;28;20042;-82
2023/01/31 08:03:31;;;;;;;8.93;3.30;;;;;;;2.53;100.00;100820.41;4995629;28;20065;-82
2023/01/31 08:06:06;;;;;;;14.73;2.87;;;;;;;2.63;100.00;100818.78;4979301;28;20045;-82
2023/01/31 08:08:33;;;;;;;6.80;2.53;;;;;;;2.53;100.00;100814.31;4994191;28;20495;-83
2023/01/31 08:10:59;;;;;;;8.17;3.30;;;;;;;2.62;100.00;100816.16;4995465;28;20072;-83
2023/01/31 08:13:26;;;;;;;11.40;3.17;;;;;;;2.67;100.00;100815.34;4965026;28;20092;-83
2023/01/31 08:15:53;;;;;;;11.83;3.13;;;;;;;2.71;100.00;100805.84;4963149;28;20513;-83
2023/01/31 08:18:19;;;;;;;13.57;3.80;;;;;;;2.69;100.00;100813.66;4963888;28;20044;-82
2023/01/31 08:20:46;;;;;;;8.27;2.57;;;;;;;2.76;100.00;100812.00;4960296;28;20038;-83
2023/01/31 08:23:13;;;;;;;10.67;3.33;;;;;;;2.72;100.00;100808.47;4992610;28;20050;-83
2023/01/31 08:25:39;;;;;;;14.97;5.40;;;;;;;2.82;100.00;100806.88;4976738;28;20053;-83
2023/01/31 08:28:06;;;;;;;13.43;3.80;;;;;;;2.81;100.00;100802.50;4979270;28;20046;-82
2023/01/31 08:30:33;;;;;;;10.10;2.70;;;;;;;2.88;100.00;100800.88;4978648;28;20052;-82
2023/01/31 08:33:00;;;;;;;12.43;3.43;;;;;;;2.84;100.00;100802.53;4963916;28;20046;-82
2023/01/31 08:35:27;;;;;;;8.20;2.60;;;;;;;2.96;100.00;100794.00;4979608;28;20042;-83
2023/01/31 08:37:53;;;;;;;15.33;3.50;;;;;;;2.82;100.00;100799.91;4960295;28;20054;-82
2023/01/31 08:40:32;;;;;;;12.63;3.50;;;;;;;2.94;100.00;100798.31;4965365;28;20072;-82
2023/01/31 08:43:02;;;;;;;8.40;3.47;;;;;;;2.99;100.00;100801.88;4962292;28;20049;-83
2023/01/31 08:45:29;;;;;;;6.90;3.23;;;;;;;2.96;100.00;100802.72;4978569;28;20442;-82
2023/01/31 08:47:57;;;;;;;10.50;2.90;;;;;;;2.94;100.00;100796.56;4963222;28;20602;-82
2023/01/31 08:50:27;;;;;;;9.07;4.97;;;;;;;3.06;100.00;100803.69;4966087;28;20056;-82
2023/01/31 08:52:55;;;;;;;12.40;5.27;;;;;;;2.96;100.00;100786.19;4962360;28;20133;-82
2023/01/31 08:55:23;;;;;;;13.40;3.80;;;;;;;3.01;100.00;100784.50;4978224;28;20157;-83
2023/01/31 08:57:50;;;;;;;16.20;5.43;;;;;;;3.13;100.00;100784.66;4979347;28;20042;-83
2023/01/31 09:00:25;;;;;;;11.20;4.70;;;;;;;3.09;100.00;100785.47;4962084;28;20050;-83
2023/01/31 09:02:53;;;;;;;8.03;3.30;;;;;;;3.10;100.00;100782.84;4978257;28;20092;-83
2023/01/31 09:05:20;;;;;;;8.57;2.83;;;;;;;3.12;100.00;100771.59;4977891;28;20050;-82
2023/01/31 09:07:47;;;;;;;13.03;4.13;;;;;;;3.30;100.00;100777.00;4977275;28;20629;-81
2023/01/31 09:10:14;;;;;;;11.83;4.63;;;;;;;3.17;100.00;100775.97;4978445;28;20042;-81
2023/01/31 09:12:40;;;;;;;6.37;2.70;;;;;;;3.26;100.00;100773.47;4961434;28;20104;-81
2023/01/31 09:15:08;;;;;;;12.20;4.60;;;;;;;3.33;100.00;100771.81;4958740;28;20042;-83
2023/01/31 09:17:34;;;;;;;9.17;3.27;;;;;;;3.36;100.00;100774.44;4975575;28;20046;-81
2023/01/31 09:20:05;;;;;;;10.47;3.50;;;;;;;3.34;100.00;100765.72;4968786;28;20046;-82
2023/01/31 09:22:32;;;;;;;12.10;3.27;;;;;;;3.35;100.00;100763.13;4974196;28;20049;-83
2023/01/31 09:25:00;;;;;;;9.23;3.17;;;;;;;3.41;100.00;100757.09;4974242;28;20488;-82
2023/01/31 09:27:27;;;;;;;8.17;3.20;;;;;;;3.35;100.00;100760.50;4958501;28;20042;-86
2023/01/31 09:29:54;;;;;;;6.00;2.43;;;;;;;3.39;100.00;100757.09;4991226;28;20034;-84
2023/01/31 09:32:21;;;;;;;6.93;2.90;;;;;;;3.35;100.00;100763.13;4978946;28;20041;-83
2023/01/31 09:34:48;;;;;;;6.07;2.70;;;;;;;3.32;100.00;100754.41;4973714;28;20034;-83
2023/01/31 09:37:15;;;;;;;9.77;2.90;;;;;;;3.28;100.00;100758.72;4976877;28;20042;-85
2023/01/31 09:39:42;;;;;;;8.90;3.33;;;;;;;3.36;100.00;100753.53;4982598;28;20049;-83
2023/01/31 09:42:33;;;;;;;10.47;4.17;;;;;;;3.37;100.00;100750.09;4978492;28;20034;-82
2023/01/31 09:45:06;;;;;;;8.77;2.97;;;;;;;3.37;100.00;100740.53;4958489;28;20046;-83
2023/01/31 09:47:37;;;;;;;10.35;3.25;;;;;;;3.33;100.00;100738.72;4958832;28;20057;-83
2023/01/31 09:50:32;;;;;;;6.37;2.53;;;;;;;3.36;100.00;100736.19;4959647;28;20038;-82
2023/01/31 09:52:58;;;;;;;;;;;;;;;3.32;100.00;100729.16;4975199;28;20042;-82
2023/01/31 09:55:38;;;;;;;12.63;3.97;;;;;;;3.36;100.00;100732.66;4961375;28;20286;-80
2023/01/31 09:58:23;;;;;;;12.20;3.50;;;;;;;3.31;100.00;100722.19;4977010;28;20100;-81
2023/01/31 10:01:05;;;;;;;11.33;4.07;;;;;;;3.38;100.00;100724.00;5006058;28;20090;-83
2023/01/31 10:03:34;;;;;;;6.97;2.70;;;;;;;3.40;100.00;100713.56;4977526;28;20046;-82
2023/01/31 10:06:23;;;;;;;11.20;2.80;;;;;;;3.39;100.00;100710.06;4977264;28;20038;-82
2023/01/31 10:08:58;;;;;;;15.10;4.60;;;;;;;3.47;100.00;100707.53;4966272;28;20042;-82
2023/01/31 10:11:34;;;;;;;9.70;3.67;;;;;;;3.49;100.00;100705.81;4977583;28;20521;-82
2023/01/31 10:14:10;;;;;;;6.33;3.10;;;;;;;3.51;100.00;100705.81;4961354;28;20293;-82
2023/01/31 10:16:43;;;;;;;10.85;4.00;;;;;;;3.48;100.00;100695.34;4976885;28;20049;-82
2023/01/31 10:19:23;;;;;;;14.03;3.53;;;;;;;3.52;100.00;100692.75;4981331;28;20038;-82
2023/01/31 10:21:53;;;;;;;9.40;3.73;;;;;;;3.49;100.00;100684.03;4978288;28;20773;-81
2023/01/31 10:24:35;;;;;;;8.77;2.57;;;;;;;3.60;100.00;100678.03;4978645;28;20052;-82
2023/01/31 10:27:16;;;;;;;12.23;2.73;;;;;;;3.66;100.00;100672.88;4969096;28;20045;-82
2023/01/31 10:29:48;;;;;;;8.13;2.90;;;;;;;3.65;100.00;100665.03;4946236;28;20034;-84
2023/01/31 10:32:20;;;;;;;15.80;5.07;;;;;;;3.74;100.00;100666.81;4978007;28;20050;-83
2023/01/31 10:34:50;;;;;;;7.63;3.30;;;;;;;3.72;100.00;100658.13;4963067;28;20554;-83
2023/01/31 10:37:30;;;;;;;13.53;3.17;;;;;;;3.77;100.00;100653.78;4962048;28;20469;-83
2023/01/31 10:40:03;;;;;;;9.07;3.30;;;;;;;3.80;100.00;100644.22;4976403;28;20069;-82
2023/01/31 10:42:37;;;;;;;14.17;4.60;;;;;;;3.85;100.00;100645.13;5007200;28;20038;-83
2023/01/31 10:45:07;;;;;;;9.48;3.17;;;;;;;3.85;100.00;100639.91;4978241;28;20128;-84
2023/01/31 10:47:36;;;;;;;11.27;3.33;;;;;;;3.92;100.00;100646.91;4977589;28;20045;-84
2023/01/31 10:50:43;;;;;;;12.83;3.43;;;;;;;3.87;100.00;100640.81;4992071;28;20418;-83
2023/01/31 10:53:49;;;;;;;9.30;4.90;;;;;;;3.82;100.00;100634.66;4977380;28;20046;-84
2023/01/31 10:56:32;;;;;;;10.60;3.07;;;;;;;3.87;100.00;100624.25;4970916;28;20056;-83
2023/01/31 10:59:02;;;;;;;12.60;3.63;;;;;;;3.92;100.00;100612.06;4977334;28;20042;-83
2023/01/31 11:01:28;;;;;;;10.43;4.57;;;;;;;3.93;100.00;100609.44;4973741;28;20043;-83
2023/01/31 11:03:55;;;;;;;9.87;4.20;;;;;;;3.82;100.00;100592.84;4987390;28;20050;-83
2023/01/31 11:06:23;;;;;;;13.90;3.37;;;;;;;3.92;100.00;100593.78;4976335;28;20049;-84
2023/01/31 11:08:54;;;;;;;16.03;3.83;;;;;;;3.92;100.00;100580.69;4968380;28;20042;-84
2023/01/31 11:11:24;;;;;;;9.97;3.00;;;;;;;4.01;100.00;100574.66;4979137;28;20131;-82
2023/01/31 11:13:57;;;;;;;10.17;3.77;;;;;;;3.98;100.00;100564.19;4971468;28;20038;-83
2023/01/31 11:16:33;;;;;;;14.90;3.63;;;;;;;3.98;100.00;100557.22;4977355;28;20474;-83
2023/01/31 11:19:02;;;;;;;12.47;4.30;;;;;;;3.94;100.00;100553.69;4992895;28;20826;-84
2023/01/31 11:21:31;;;;;;;9.93;4.23;;;;;;;3.97;100.00;100550.25;4976252;28;20049;-83
2023/01/31 11:24:02;;;;;;;11.67;4.67;;;;;;;4.01;100.00;100543.28;4962299;28;20041;-84
2023/01/31 11:26:33;;;;;;;15.53;4.40;;;;;;;4.03;100.00;100549.38;4957571;28;20463;-84
2023/01/31 11:29:01;;;;;;;16.07;5.20;;;;;;;4.00;100.00;100552.00;4965727;28;20045;-82
2023/01/31 11:31:32;;;;;;;14.80;3.60;;;;;;;3.96;100.00;100543.28;4957762;28;20077;-84
2023/01/31 11:34:01;;;;;;;10.50;4.70;;;;;;;3.98;100.00;100533.69;4971659;28;20050;-84
2023/01/31 11:36:41;;;;;;;14.43;5.23;;;;;;;3.86;100.00;100531.00;4993358;28;20627;-84
2023/01/31 11:39:38;;;;;;;15.53;4.57;;;;;;;3.86;100.00;100516.19;4988603;28;20517;-85
2023/01/31 11:42:13;;;;;;;10.30;4.23;;;;;;;3.75;100.00;100520.50;4948157;28;20518;-84
2023/01/31 11:44:54;;;;;;;11.83;5.80;;;;;;;3.81;100.00;100512.72;4974826;28;20046;-84